Time;durP1;ratioP1;P1;durP2;ratioP2;P2;SDS_P1;SDS_P2;PMS_P1;PMS_P2;Temp;Humidity;BMP_temperature;BMP_pressure;BME280_temperature;BME280_humidity;BME280_pressure;Samples;Min_cycle;Max_cycle;Signal;HPM_P1;HPM_P2
2021/10/22 00:01:40;;;;;;;16.23;10.60;;;11.90;97.30;;;;;;5101470;28;20077;-71
2021/10/22 00:04:08;;;;;;;18.58;12.15;;;11.90;97.50;;;;;;5080773;28;20474;-72
2021/10/22 00:06:34;;;;;;;16.80;11.10;;;11.90;97.40;;;;;;5074370;28;20048;-72
2021/10/22 00:09:00;;;;;;;18.45;10.65;;;11.80;97.60;;;;;;5107263;28;20051;-71
2021/10/22 00:11:26;;;;;;;20.05;11.52;;;11.80;97.60;;;;;;5073626;28;20034;-72
2021/10/22 00:13:52;;;;;;;16.33;11.55;;;11.80;97.60;;;;;;5074213;28;20032;-73
2021/10/22 00:16:24;;;;;;;17.95;11.60;;;11.80;97.90;;;;;;5074021;28;20024;-71
2021/10/22 00:19:01;;;;;;;18.00;11.75;;;11.80;97.90;;;;;;5073998;28;20051;-72
2021/10/22 00:21:30;;;;;;;17.58;12.18;;;11.70;97.90;;;;;;5069012;28;20052;-71
2021/10/22 00:24:13;;;;;;;17.58;12.25;;;11.70;98.10;;;;;;5073897;28;20545;-72
2021/10/22 00:26:45;;;;;;;18.13;11.80;;;11.70;98.20;;;;;;5074415;28;20474;-71
2021/10/22 00:29:35;;;;;;;16.70;11.75;;;11.70;98.40;;;;;;5072669;28;20049;-71
2021/10/22 00:32:14;;;;;;;17.77;11.90;;;11.70;98.60;;;;;;5072511;28;20031;-71
2021/10/22 00:34:46;;;;;;;17.40;11.48;;;11.70;98.60;;;;;;5056431;28;20028;-71
2021/10/22 00:37:21;;;;;;;17.23;11.55;;;11.60;98.70;;;;;;5071944;28;20398;-72
2021/10/22 00:39:55;;;;;;;18.92;11.68;;;11.70;98.70;;;;;;5072681;28;20043;-71
2021/10/22 00:42:22;;;;;;;17.38;11.82;;;11.60;98.60;;;;;;5072114;28;20102;-71
2021/10/22 00:44:51;;;;;;;18.75;11.63;;;11.70;98.80;;;;;;5072663;28;20032;-73
2021/10/22 00:47:17;;;;;;;16.30;11.95;;;11.70;99.20;;;;;;5070709;28;20053;-71
2021/10/22 00:49:43;;;;;;;16.48;11.50;;;11.70;99.30;;;;;;5072521;28;20033;-71
2021/10/22 00:52:09;;;;;;;20.60;11.88;;;11.70;99.00;;;;;;5054995;28;20029;-71
2021/10/22 00:54:35;;;;;;;16.67;11.63;;;11.80;98.90;;;;;;5072742;28;20040;-71
2021/10/22 00:57:01;;;;;;;18.08;11.68;;;11.70;98.70;;;;;;5072040;28;20054;-73
2021/10/22 00:59:27;;;;;;;21.77;11.77;;;11.80;98.70;;;;;;5065195;28;20033;-72
2021/10/22 01:01:53;;;;;;;17.83;11.45;;;11.80;98.70;;;;;;5075492;28;20478;-72
2021/10/22 01:04:19;;;;;;;18.33;12.02;;;11.80;98.60;;;;;;5074237;28;20445;-72
2021/10/22 01:06:45;;;;;;;20.95;11.40;;;11.80;98.70;;;;;;5073648;28;20087;-73
2021/10/22 01:09:12;;;;;;;16.42;11.30;;;11.80;98.70;;;;;;5073965;28;20053;-73
2021/10/22 01:11:39;;;;;;;16.75;11.48;;;11.80;98.60;;;;;;5075058;28;20120;-73
2021/10/22 01:14:07;;;;;;;16.05;11.40;;;11.90;98.40;;;;;;5103557;28;20475;-73
2021/10/22 01:16:36;;;;;;;18.88;11.65;;;11.90;98.20;;;;;;5074620;28;20031;-74
2021/10/22 01:19:02;;;;;;;17.13;11.70;;;12.00;98.00;;;;;;5073524;28;20029;-71
2021/10/22 01:21:28;;;;;;;15.38;11.48;;;11.90;97.80;;;;;;5106977;28;20025;-71
2021/10/22 01:23:54;;;;;;;16.17;11.40;;;12.00;97.60;;;;;;5074619;28;20166;-72
2021/10/22 01:26:20;;;;;;;15.95;11.45;;;12.00;97.40;;;;;;5073156;28;20024;-71
2021/10/22 01:28:47;;;;;;;18.33;12.70;;;12.00;97.30;;;;;;5066578;28;20044;-71
2021/10/22 01:31:14;;;;;;;18.85;12.10;;;12.00;97.10;;;;;;5074414;28;20029;-75
2021/10/22 01:33:41;;;;;;;16.42;11.88;;;12.10;97.20;;;;;;5074645;28;20025;-71
2021/10/22 01:36:07;;;;;;;16.77;12.35;;;12.10;96.60;;;;;;5106736;28;20024;-71
2021/10/22 01:38:33;;;;;;;14.82;11.50;;;12.10;96.40;;;;;;5072501;28;20033;-71
2021/10/22 01:40:58;;;;;;;16.75;12.27;;;12.10;96.40;;;;;;5069901;28;20110;-72
2021/10/22 01:43:25;;;;;;;14.77;11.55;;;12.10;96.10;;;;;;5070819;28;20024;-71
2021/10/22 01:45:52;;;;;;;21.83;14.27;;;12.10;95.90;;;;;;5067738;28;20539;-71
2021/10/22 01:48:19;;;;;;;28.50;15.95;;;12.20;95.60;;;;;;5073549;28;20032;-75
2021/10/22 01:50:45;;;;;;;42.65;22.50;;;12.20;95.30;;;;;;5072478;28;20056;-73
2021/10/22 01:53:14;;;;;;;29.98;15.93;;;12.20;95.00;;;;;;5072704;28;20130;-73
2021/10/22 01:55:40;;;;;;;23.73;14.82;;;12.10;94.90;;;;;;5072217;28;20032;-77
2021/10/22 01:58:05;;;;;;;21.25;13.43;;;12.20;94.90;;;;;;5072090;28;20035;-72
2021/10/22 02:00:31;;;;;;;18.92;12.68;;;12.10;94.70;;;;;;5073399;28;20032;-73
2021/10/22 02:02:57;;;;;;;18.73;12.48;;;12.20;94.70;;;;;;5072707;28;20463;-73
2021/10/22 02:05:22;;;;;;;18.15;12.48;;;12.20;94.60;;;;;;5073558;28;20021;-73
2021/10/22 02:07:48;;;;;;;14.73;11.48;;;12.20;94.50;;;;;;5089225;28;20056;-72
2021/10/22 02:10:14;;;;;;;20.83;11.80;;;12.20;94.40;;;;;;5071335;28;20055;-71
2021/10/22 02:12:39;;;;;;;18.15;11.85;;;12.20;94.40;;;;;;5092533;28;20024;-72
2021/10/22 02:15:06;;;;;;;18.17;12.20;;;12.30;94.10;;;;;;5097561;28;20020;-72
2021/10/22 02:17:33;;;;;;;16.85;11.52;;;12.20;94.00;;;;;;5092806;28;20623;-72
2021/10/22 02:19:59;;;;;;;17.10;12.40;;;12.20;94.00;;;;;;5093380;28;20027;-71
2021/10/22 02:22:25;;;;;;;18.50;12.07;;;12.30;94.00;;;;;;5075847;28;20024;-72
2021/10/22 02:24:51;;;;;;;22.23;14.32;;;12.20;94.00;;;;;;5115221;27;20122;-73
2021/10/22 02:27:16;;;;;;;18.73;13.45;;;12.20;93.80;;;;;;5070648;28;20524;-73
2021/10/22 02:29:42;;;;;;;17.35;12.00;;;12.20;93.60;;;;;;5092328;28;20063;-71
2021/10/22 02:32:08;;;;;;;21.08;13.55;;;12.20;93.30;;;;;;5074016;28;20496;-72
2021/10/22 02:34:33;;;;;;;21.05;14.02;;;12.20;93.30;;;;;;5092956;28;20450;-72
2021/10/22 02:37:00;;;;;;;21.05;14.52;;;12.20;93.40;;;;;;5093864;28;20024;-71
2021/10/22 02:39:26;;;;;;;20.75;12.95;;;12.20;93.30;;;;;;5075454;28;20028;-72
2021/10/22 02:41:59;;;;;;;17.35;12.60;;;12.10;93.30;;;;;;5085365;28;20020;-71
2021/10/22 02:44:28;;;;;;;20.20;13.02;;;12.10;93.30;;;;;;5096425;28;20028;-72
2021/10/22 02:46:54;;;;;;;20.20;12.90;;;12.10;93.30;;;;;;5070224;28;20035;-72
2021/10/22 02:49:20;;;;;;;18.48;13.65;;;12.10;93.40;;;;;;5093126;28;20056;-72
2021/10/22 02:51:49;;;;;;;18.65;12.95;;;12.10;93.30;;;;;;5074835;28;20028;-72
2021/10/22 02:54:15;;;;;;;17.67;13.00;;;12.10;93.30;;;;;;5092968;28;20024;-72
2021/10/22 02:56:41;;;;;;;18.13;13.15;;;12.20;93.30;;;;;;5059812;28;20041;-69
2021/10/22 02:59:07;;;;;;;16.65;12.52;;;12.10;93.40;;;;;;5034305;28;20033;-72
2021/10/22 03:01:37;;;;;;;17.75;12.60;;;12.20;93.40;;;;;;5032943;28;20121;-74
2021/10/22 03:04:12;;;;;;;19.83;13.02;;;12.20;93.50;;;;;;5042012;28;20028;-72
2021/10/22 03:07:01;;;;;;;19.17;12.40;;;12.20;93.40;;;;;;5030896;28;20075;-73
2021/10/22 03:10:13;;;;;;;17.98;11.98;;;12.20;93.30;;;;;;5030790;28;20049;-72
2021/10/22 03:12:42;;;;;;;17.15;12.00;;;12.20;93.20;;;;;;5029571;28;20056;-76
2021/10/22 03:15:08;;;;;;;20.25;12.63;;;12.20;93.30;;;;;;5025962;28;20502;-71
2021/10/22 03:17:44;;;;;;;20.77;12.50;;;12.20;93.30;;;;;;5049651;28;20040;-71
2021/10/22 03:20:30;;;;;;;;;;;12.30;93.20;;;;;;5036590;28;20112;-72
2021/10/22 03:22:56;;;;;;;17.20;12.75;;;12.30;92.90;;;;;;5043892;28;19913;-73
2021/10/22 03:25:22;;;;;;;17.73;12.30;;;12.30;93.20;;;;;;5049990;28;20498;-73
2021/10/22 03:27:48;;;;;;;19.90;12.85;;;12.20;93.20;;;;;;5066487;28;20041;-73
2021/10/22 03:30:14;;;;;;;16.77;12.63;;;12.20;93.20;;;;;;5050225;28;20029;-73
2021/10/22 03:32:40;;;;;;;30.65;18.60;;;12.20;93.00;;;;;;5033399;28;20056;-74
2021/10/22 03:35:06;;;;;;;34.13;20.40;;;12.30;92.70;;;;;;5069401;28;20095;-72
2021/10/22 03:37:33;;;;;;;39.70;24.58;;;12.30;92.60;;;;;;5072116;28;20036;-72
2021/10/22 03:39:58;;;;;;;46.60;26.70;;;12.20;92.50;;;;;;5072059;28;20035;-72
2021/10/22 03:42:24;;;;;;;55.35;29.80;;;12.20;92.60;;;;;;5071757;28;20028;-71
2021/10/22 03:44:50;;;;;;;56.72;31.65;;;12.20;92.50;;;;;;5071612;28;20032;-72
2021/10/22 03:47:16;;;;;;;64.15;34.63;;;12.20;92.40;;;;;;5071768;28;20793;-72
2021/10/22 03:49:43;;;;;;;67.18;35.83;;;12.20;92.40;;;;;;5071947;28;20074;-72
2021/10/22 03:52:09;;;;;;;60.67;34.08;;;12.30;92.30;;;;;;5071415;28;20483;-72
2021/10/22 03:54:34;;;;;;;58.92;31.85;;;12.30;92.20;;;;;;5073302;28;20067;-72
2021/10/22 03:57:00;;;;;;;58.65;32.35;;;12.30;92.10;;;;;;5071473;28;20482;-72
2021/10/22 03:59:26;;;;;;;54.75;29.60;;;12.30;92.00;;;;;;5071665;28;20459;-73
2021/10/22 04:01:51;;;;;;;48.47;28.35;;;12.30;92.00;;;;;;5065716;28;20449;-72
2021/10/22 04:04:17;;;;;;;49.17;28.70;;;12.30;91.90;;;;;;5068674;28;20081;-81
2021/10/22 04:06:43;;;;;;;48.22;28.27;;;12.30;92.00;;;;;;5075123;28;20055;-81
2021/10/22 04:09:09;;;;;;;54.33;28.33;;;12.30;91.70;;;;;;5069097;28;20397;-78
2021/10/22 04:11:35;;;;;;;55.60;30.67;;;12.30;91.50;;;;;;5092188;28;20032;-81
2021/10/22 04:14:02;;;;;;;66.05;34.53;;;12.40;91.30;;;;;;5072859;28;20521;-81
2021/10/22 04:16:28;;;;;;;64.65;34.67;;;12.30;91.20;;;;;;5073974;28;20035;-81
2021/10/22 04:18:54;;;;;;;64.28;35.47;;;12.40;91.10;;;;;;5088536;28;20028;-77
2021/10/22 04:21:19;;;;;;;57.80;30.83;;;12.40;90.90;;;;;;5091207;28;20024;-81
2021/10/22 04:23:45;;;;;;;60.22;31.17;;;12.40;90.80;;;;;;5077368;28;20048;-82
2021/10/22 04:26:12;;;;;;;63.90;34.00;;;12.40;90.80;;;;;;5074211;28;20031;-73
2021/10/22 04:28:38;;;;;;;63.45;35.70;;;12.40;90.80;;;;;;5075642;28;20135;-71
2021/10/22 04:31:04;;;;;;;56.22;32.17;;;12.40;90.80;;;;;;5095055;28;20059;-73
2021/10/22 04:33:30;;;;;;;54.70;29.17;;;12.40;90.70;;;;;;5092571;28;20028;-71
2021/10/22 04:35:55;;;;;;;52.83;29.42;;;12.50;90.40;;;;;;5076595;28;20118;-71
2021/10/22 04:40:52;;;;;;;61.75;33.55;;;12.50;90.20;;;;;;5098936;28;20107;-72
2021/10/22 04:43:19;;;;;;;63.58;31.77;;;12.60;90.00;;;;;;5076716;28;20429;-72
2021/10/22 04:45:49;;;;;;;58.60;31.58;;;12.50;89.70;;;;;;5094768;28;20031;-74
2021/10/22 04:48:41;;;;;;;56.63;32.38;;;12.60;89.50;;;;;;5074934;28;20170;-72
2021/10/22 04:51:07;;;;;;;56.15;31.23;;;12.60;89.40;;;;;;5059271;28;20475;-72
2021/10/22 04:53:33;;;;;;;53.05;30.52;;;12.60;89.30;;;;;;5066835;28;20042;-72
2021/10/22 04:56:00;;;;;;;50.08;28.67;;;12.60;89.10;;;;;;5076359;28;20085;-73
2021/10/22 04:58:26;;;;;;;47.53;27.80;;;12.70;89.10;;;;;;5073298;28;20051;-73
2021/10/22 05:00:53;;;;;;;42.67;25.27;;;12.70;89.00;;;;;;5088967;28;20028;-73
2021/10/22 05:03:19;;;;;;;42.40;24.98;;;12.80;88.50;;;;;;5066159;28;20024;-81
2021/10/22 05:05:45;;;;;;;48.80;27.38;;;12.80;88.00;;;;;;5076840;28;20024;-82
2021/10/22 05:08:11;;;;;;;46.00;25.30;;;12.90;87.50;;;;;;5066168;28;20060;-81
2021/10/22 05:10:36;;;;;;;32.13;20.30;;;13.00;87.70;;;;;;5066026;28;20040;-75
2021/10/22 05:13:02;;;;;;;33.63;20.17;;;13.00;87.00;;;;;;5076153;28;20024;-81
2021/10/22 05:15:28;;;;;;;33.25;20.15;;;13.10;86.80;;;;;;5090261;28;20025;-77
2021/10/22 05:17:55;;;;;;;34.83;22.13;;;13.20;86.00;;;;;;5089119;28;20024;-76
2021/10/22 05:20:20;;;;;;;39.17;22.20;;;13.30;85.10;;;;;;5091168;28;20025;-83
2021/10/22 05:22:46;;;;;;;38.53;23.45;;;13.40;84.50;;;;;;5088507;28;20388;-79
2021/10/22 05:25:14;;;;;;;36.22;21.08;;;13.50;84.20;;;;;;5075927;28;20035;-77
2021/10/22 05:27:40;;;;;;;39.40;24.75;;;13.60;83.80;;;;;;5067813;28;20082;-77
2021/10/22 05:30:07;;;;;;;39.90;23.80;;;13.90;83.70;;;;;;5094359;28;20024;-85
2021/10/22 05:32:33;;;;;;;40.75;23.42;;;14.10;82.80;;;;;;5064167;28;20040;-84
2021/10/22 05:34:59;;;;;;;43.58;25.35;;;14.30;80.80;;;;;;5075541;28;20032;-75
2021/10/22 05:37:25;;;;;;;45.67;26.08;;;14.40;79.70;;;;;;5092931;28;20039;-76
2021/10/22 05:39:51;;;;;;;41.42;21.95;;;14.50;79.80;;;;;;5087680;28;20035;-69
2021/10/22 05:42:17;;;;;;;42.25;25.10;;;14.90;80.40;;;;;;5092043;28;20024;-75
2021/10/22 05:44:43;;;;;;;45.92;25.90;;;15.40;79.00;;;;;;5089759;28;20028;-75
2021/10/22 05:47:08;;;;;;;43.70;25.48;;;15.90;76.70;;;;;;5071281;28;20541;-74
2021/10/22 05:49:43;;;;;;;44.55;26.92;;;16.40;74.80;;;;;;5074166;28;20071;-74
2021/10/22 05:52:09;;;;;;;42.90;26.27;;;16.70;72.30;;;;;;5087890;28;20035;-74
2021/10/22 05:54:35;;;;;;;49.25;29.80;;;16.80;71.90;;;;;;5086650;28;20024;-74
2021/10/22 05:57:01;;;;;;;48.97;28.60;;;17.00;70.80;;;;;;5069333;28;20032;-74
2021/10/22 05:59:27;;;;;;;50.20;29.75;;;16.90;69.70;;;;;;5071786;28;20052;-75
2021/10/22 06:01:53;;;;;;;55.40;30.13;;;16.60;69.70;;;;;;5104629;28;20452;-76
2021/10/22 06:04:19;;;;;;;52.97;29.50;;;16.30;69.90;;;;;;5088614;28;20077;-74
2021/10/22 06:06:44;;;;;;;53.97;29.02;;;16.10;70.30;;;;;;5083670;28;20069;-74
2021/10/22 06:09:12;;;;;;;51.80;29.33;;;15.80;71.00;;;;;;5067382;28;20040;-74
2021/10/22 06:11:38;;;;;;;56.53;30.83;;;15.50;71.50;;;;;;5068354;28;20036;-75
2021/10/22 06:14:06;;;;;;;53.72;30.55;;;15.40;72.10;;;;;;5066385;28;20028;-73
2021/10/22 06:16:33;;;;;;;51.65;28.60;;;15.30;72.90;;;;;;5067192;28;20037;-76
2021/10/22 06:19:03;;;;;;;49.75;26.75;;;15.20;73.10;;;;;;5058446;28;20037;-74
2021/10/22 06:24:02;;;;;;;54.47;28.58;;;15.30;72.80;;;;;;5065505;28;20029;-71
2021/10/22 06:26:38;;;;;;;52.63;27.55;;;15.30;73.10;;;;;;5069265;28;20070;-72
2021/10/22 06:29:06;;;;;;;54.78;27.85;;;15.40;72.90;;;;;;5065237;28;20132;-76
2021/10/22 06:31:32;;;;;;;51.90;28.40;;;15.50;72.70;;;;;;5069047;28;20386;-73
2021/10/22 06:33:59;;;;;;;50.60;27.13;;;15.50;72.60;;;;;;5067656;28;20111;-72
2021/10/22 06:36:25;;;;;;;48.60;26.45;;;15.60;72.90;;;;;;5067243;28;20032;-73
2021/10/22 06:38:51;;;;;;;40.47;23.60;;;15.90;72.90;;;;;;5068984;28;20024;-73
2021/10/22 06:41:18;;;;;;;45.65;24.80;;;16.30;72.10;;;;;;5063497;28;20025;-75
2021/10/22 06:43:44;;;;;;;49.88;27.20;;;16.50;71.00;;;;;;5066386;28;20092;-74
2021/10/22 06:46:10;;;;;;;48.78;26.45;;;16.60;69.70;;;;;;5064939;28;20078;-72
2021/10/22 06:48:38;;;;;;;55.92;30.33;;;16.50;69.40;;;;;;5095362;28;20052;-73
2021/10/22 06:51:05;;;;;;;58.95;31.60;;;16.50;69.30;;;;;;5060346;28;20033;-77
2021/10/22 06:53:31;;;;;;;57.65;30.92;;;16.40;69.20;;;;;;5068714;28;20120;-77
2021/10/22 06:55:57;;;;;;;52.90;30.08;;;16.40;69.40;;;;;;5067081;28;20140;-77
2021/10/22 06:58:23;;;;;;;53.38;29.27;;;16.30;69.30;;;;;;5072833;28;20028;-75
2021/10/22 07:00:50;;;;;;;53.38;30.13;;;16.30;69.40;;;;;;5065513;28;20020;-83
2021/10/22 07:03:24;;;;;;;48.55;28.52;;;16.30;70.00;;;;;;5071010;28;20035;-78
2021/10/22 07:06:03;;;;;;;48.20;27.73;;;16.30;69.80;;;;;;5097820;28;20083;-77
2021/10/22 07:08:28;;;;;;;47.58;27.30;;;16.20;69.50;;;;;;5089140;28;20477;-80
2021/10/22 07:10:54;;;;;;;56.90;30.10;;;16.10;69.90;;;;;;5082644;28;20032;-79
2021/10/22 07:13:23;;;;;;;54.50;30.80;;;16.00;70.10;;;;;;5065782;28;20467;-76
2021/10/22 07:15:49;;;;;;;60.97;33.00;;;16.00;70.10;;;;;;5091660;28;20122;-77
2021/10/22 07:18:14;;;;;;;56.97;31.75;;;16.00;70.10;;;;;;5064759;28;20048;-77
2021/10/22 07:20:40;;;;;;;55.40;30.95;;;16.00;70.70;;;;;;5072300;28;20028;-75
2021/10/22 07:25:33;;;;;;;44.95;26.40;;;16.20;71.30;;;;;;5085265;28;20036;-76
2021/10/22 07:28:07;;;;;;;41.63;25.60;;;16.50;71.00;;;;;;5080915;28;20040;-78
2021/10/22 07:30:33;;;;;;;40.88;25.05;;;16.80;70.50;;;;;;5060135;28;20165;-76
2021/10/22 07:32:58;;;;;;;41.97;24.75;;;17.00;69.10;;;;;;5067688;28;20052;-77
2021/10/22 07:35:25;;;;;;;44.67;25.58;;;17.10;68.40;;;;;;5085860;28;20066;-76
2021/10/22 07:37:51;;;;;;;52.53;29.15;;;17.20;67.90;;;;;;5066331;28;20054;-76
2021/10/22 07:40:17;;;;;;;65.15;35.50;;;17.30;67.40;;;;;;5070982;28;20492;-76
2021/10/22 07:42:43;;;;;;;76.32;37.65;;;17.30;67.00;;;;;;5096172;28;20063;-76
2021/10/22 07:45:09;;;;;;;63.55;35.03;;;17.30;66.70;;;;;;5069212;28;20095;-75
2021/10/22 07:47:36;;;;;;;65.43;34.60;;;17.20;66.80;;;;;;5066990;28;20081;-78
2021/10/22 07:50:05;;;;;;;51.92;31.63;;;17.20;67.00;;;;;;5063722;28;20120;-75
2021/10/22 07:52:31;;;;;;;48.78;28.25;;;17.30;66.90;;;;;;5070890;28;20385;-76
2021/10/22 07:54:59;;;;;;;54.38;31.40;;;17.30;66.30;;;;;;5069149;28;20480;-75
2021/10/22 07:57:25;;;;;;;54.35;32.13;;;17.20;66.00;;;;;;5090289;28;20106;-75
2021/10/22 07:59:52;;;;;;;48.80;29.30;;;17.20;66.20;;;;;;5075224;28;20032;-74
2021/10/22 08:02:18;;;;;;;42.63;26.45;;;17.20;66.70;;;;;;5088268;28;20043;-74
2021/10/22 08:04:47;;;;;;;29.77;19.42;;;17.40;67.00;;;;;;5092352;28;20113;-73
2021/10/22 08:07:14;;;;;;;28.42;16.95;;;17.50;66.40;;;;;;5064910;28;20041;-76
2021/10/22 08:09:47;;;;;;;70.03;55.90;;;17.60;66.20;;;;;;5089945;28;20048;-73
2021/10/22 08:12:14;;;;;;;25.20;13.75;;;17.80;65.60;;;;;;5083982;28;20020;-74
2021/10/22 08:14:45;;;;;;;21.80;13.35;;;17.90;65.20;;;;;;5062862;28;20035;-77
2021/10/22 08:17:13;;;;;;;19.00;13.00;;;18.00;64.90;;;;;;5082526;28;20356;-75
2021/10/22 08:19:40;;;;;;;21.90;13.65;;;18.20;64.90;;;;;;5070448;28;20051;-77
2021/10/22 08:24:50;;;;;;;18.92;13.23;;;18.50;63.50;;;;;;5082019;28;20493;-78
2021/10/22 08:27:16;;;;;;;16.98;13.05;;;18.80;62.70;;;;;;5077705;28;20123;-76
2021/10/22 08:29:41;;;;;;;17.30;11.93;;;19.00;62.60;;;;;;5075553;28;20039;-76
2021/10/22 08:32:07;;;;;;;16.67;11.20;;;19.30;62.10;;;;;;5072512;28;20115;-76
2021/10/22 08:34:33;;;;;;;16.42;10.85;;;19.50;60.70;;;;;;5076606;28;20569;-73
2021/10/22 08:36:58;;;;;;;19.73;11.23;;;19.50;60.20;;;;;;5075694;28;20044;-72
2021/10/22 08:39:24;;;;;;;16.88;10.70;;;19.40;60.20;;;;;;5077583;28;20028;-73
2021/10/22 08:41:53;;;;;;;20.65;11.25;;;19.40;60.10;;;;;;5076665;28;20027;-74
2021/10/22 08:44:20;;;;;;;19.42;11.38;;;19.40;60.20;;;;;;5069302;28;20024;-75
2021/10/22 08:46:48;;;;;;;14.27;9.93;;;19.60;60.30;;;;;;5094405;28;20028;-76
2021/10/22 08:49:14;;;;;;;14.23;9.38;;;19.90;59.60;;;;;;5075512;28;20058;-74
2021/10/22 08:51:42;;;;;;;15.32;10.18;;;20.00;59.10;;;;;;5082229;28;20115;-74
2021/10/22 08:54:09;;;;;;;17.67;9.20;;;20.10;58.40;;;;;;5065690;28;20031;-76
2021/10/22 08:56:35;;;;;;;16.48;9.48;;;20.10;58.00;;;;;;5077089;28;20474;-74
2021/10/22 08:59:02;;;;;;;16.23;9.63;;;20.70;59.10;;;;;;5075560;28;20036;-77
2021/10/22 09:01:28;;;;;;;13.20;8.13;;;21.90;57.30;;;;;;5076132;28;20119;-78
2021/10/22 09:03:55;;;;;;;15.43;8.63;;;23.00;55.40;;;;;;5074124;28;20108;-78
2021/10/22 09:06:20;;;;;;;13.52;8.10;;;24.00;52.00;;;;;;5094314;28;20024;-78
2021/10/22 09:08:54;;;;;;;12.45;8.55;;;24.80;51.20;;;;;;5073771;28;20044;-77
2021/10/22 09:11:22;;;;;;;14.77;8.23;;;25.70;49.60;;;;;;5075606;28;20370;-77
2021/10/22 09:14:13;;;;;;;12.98;8.23;;;26.20;48.20;;;;;;5074117;28;20073;-76
2021/10/22 09:16:53;;;;;;;15.43;9.93;;;26.50;47.20;;;;;;5091529;28;20028;-76
2021/10/22 09:19:34;;;;;;;11.38;8.52;;;27.00;46.30;;;;;;5090538;28;20056;-76
2021/10/22 09:22:28;;;;;;;10.95;6.65;;;27.10;45.60;;;;;;5067214;28;20024;-75
2021/10/22 09:24:57;;;;;;;33.53;22.70;;;27.00;45.50;;;;;;5093290;28;20485;-77
2021/10/22 09:27:38;;;;;;;10.40;6.03;;;26.90;44.60;;;;;;5088756;28;20029;-77
2021/10/22 09:30:11;;;;;;;10.65;6.38;;;27.00;44.10;;;;;;5076142;28;20371;-77
2021/10/22 09:32:47;;;;;;;12.00;6.45;;;26.80;43.90;;;;;;5066892;28;20528;-75
2021/10/22 09:35:13;;;;;;;8.57;5.45;;;26.90;44.20;;;;;;5089791;28;20470;-77
2021/10/22 09:37:39;;;;;;;10.93;5.10;;;27.30;43.70;;;;;;5071511;28;20471;-77
2021/10/22 09:40:06;;;;;;;9.98;5.47;;;27.50;43.00;;;;;;5094221;28;20339;-76
2021/10/22 09:42:33;;;;;;;12.38;5.85;;;28.10;42.80;;;;;;5109863;28;20040;-77
2021/10/22 09:44:59;;;;;;;9.10;5.75;;;28.60;42.30;;;;;;5075859;28;20073;-77
2021/10/22 09:47:25;;;;;;;10.98;5.82;;;28.90;41.50;;;;;;5075983;28;20477;-78
2021/10/22 09:50:03;;;;;;;9.07;4.50;;;29.10;40.80;;;;;;5076028;28;20048;-81
2021/10/22 09:52:29;;;;;;;7.78;3.90;;;29.30;40.50;;;;;;5069724;28;20020;-78
2021/10/22 09:55:12;;;;;;;7.35;3.50;;;29.60;39.50;;;;;;5056669;28;20063;-75
2021/10/22 09:57:39;;;;;;;9.70;4.28;;;29.60;38.90;;;;;;5067964;28;20127;-72
2021/10/22 10:00:21;;;;;;;8.20;4.10;;;29.50;38.60;;;;;;5071527;28;20024;-73
2021/10/22 10:02:47;;;;;;;9.45;4.38;;;29.00;38.70;;;;;;5080723;28;20031;-75
2021/10/22 10:05:13;;;;;;;9.05;5.10;;;28.60;39.20;;;;;;5072130;28;20021;-72
2021/10/22 10:07:42;;;;;;;9.18;5.18;;;28.60;39.60;;;;;;5093494;28;20048;-72
2021/10/22 10:10:09;;;;;;;7.05;5.13;;;29.00;39.50;;;;;;5081612;28;20076;-72
2021/10/22 10:12:39;;;;;;;9.27;4.53;;;29.30;39.00;;;;;;5082156;28;20040;-75
2021/10/22 10:15:08;;;;;;;10.18;3.97;;;29.50;39.10;;;;;;5076326;28;20035;-73
2021/10/22 10:17:44;;;;;;;8.48;4.57;;;29.80;38.40;;;;;;5063635;28;20033;-75
2021/10/22 10:20:11;;;;;;;5.90;3.95;;;29.80;38.40;;;;;;5074049;28;20023;-73
2021/10/22 10:22:42;;;;;;;6.80;3.88;;;30.00;37.80;;;;;;5073954;28;20025;-73
2021/10/22 10:25:11;;;;;;;7.75;5.05;;;30.30;37.70;;;;;;5071620;28;20024;-74
2021/10/22 10:27:50;;;;;;;9.02;5.13;;;30.60;37.30;;;;;;5078688;28;20073;-74
2021/10/22 10:30:30;;;;;;;8.60;4.10;;;30.40;37.20;;;;;;5099032;28;20036;-74
2021/10/22 10:32:56;;;;;;;8.38;5.00;;;30.00;36.90;;;;;;5067648;28;20465;-74
2021/10/22 10:35:21;;;;;;;12.80;5.35;;;29.90;37.60;;;;;;5086408;28;20029;-72
2021/10/22 10:37:52;;;;;;;8.52;5.10;;;29.90;37.40;;;;;;5089108;28;20024;-75
2021/10/22 10:40:23;;;;;;;13.05;5.20;;;29.80;37.50;;;;;;5066708;28;20056;-76
2021/10/22 10:42:53;;;;;;;7.80;4.85;;;29.70;37.70;;;;;;5074546;28;20482;-73
2021/10/22 10:45:24;;;;;;;9.40;4.75;;;29.30;37.30;;;;;;5069461;28;20055;-76
2021/10/22 10:47:51;;;;;;;9.10;4.85;;;28.50;37.90;;;;;;5081713;28;20547;-75
2021/10/22 10:50:24;;;;;;;9.55;5.05;;;27.70;37.80;;;;;;5071078;28;20402;-74
2021/10/22 10:52:56;;;;;;;12.25;4.22;;;26.90;38.30;;;;;;5087474;28;20028;-75
2021/10/22 10:55:41;;;;;;;9.63;4.70;;;26.20;38.90;;;;;;5076227;28;20112;-75
2021/10/22 10:58:09;;;;;;;6.78;3.88;;;26.10;39.30;;;;;;5066620;28;20039;-79
2021/10/22 11:00:41;;;;;;;8.38;4.28;;;26.70;39.30;;;;;;5082604;28;20032;-79
2021/10/22 11:03:34;;;;;;;6.30;3.67;;;27.40;38.50;;;;;;5070557;28;20020;-78
2021/10/22 11:06:03;;;;;;;6.50;4.28;;;27.80;38.40;;;;;;5055898;28;20032;-78
2021/10/22 11:08:29;;;;;;;10.10;4.95;;;28.30;37.90;;;;;;5089121;28;20047;-79
2021/10/22 11:11:11;;;;;;;8.38;3.58;;;28.50;37.60;;;;;;5074314;28;20028;-79
2021/10/22 11:13:54;;;;;;;12.70;4.43;;;28.60;37.00;;;;;;5073151;28;20029;-80
2021/10/22 11:16:24;;;;;;;10.10;3.97;;;28.60;36.20;;;;;;5090020;28;20020;-78
2021/10/22 11:19:00;;;;;;;8.32;3.65;;;28.60;36.00;;;;;;5092457;28;20073;-77
2021/10/22 11:21:27;;;;;;;6.65;3.67;;;28.90;35.90;;;;;;5074511;28;20028;-79
2021/10/22 11:23:54;;;;;;;7.22;4.38;;;29.00;35.90;;;;;;5086652;28;20497;-79
2021/10/22 11:26:20;;;;;;;9.80;5.55;;;29.10;35.80;;;;;;5073731;28;20024;-78
2021/10/22 11:28:52;;;;;;;11.63;6.18;;;28.60;35.50;;;;;;5084750;28;20039;-79
2021/10/22 11:31:56;;;;;;;11.48;5.22;;;28.20;35.90;;;;;;5091744;28;20036;-81
2021/10/22 11:34:35;;;;;;;11.07;4.75;;;28.20;36.30;;;;;;4997414;28;20038;-80
2021/10/22 11:37:06;;;;;;;9.75;6.10;;;28.50;36.30;;;;;;5073629;28;20032;-81
2021/10/22 11:39:39;;;;;;;7.82;4.95;;;28.30;36.10;;;;;;5074473;28;20485;-79
2021/10/22 11:42:05;;;;;;;8.93;4.45;;;28.00;36.50;;;;;;5071140;28;20044;-80
2021/10/22 11:44:36;;;;;;;7.40;4.07;;;28.30;36.60;;;;;;5074693;28;20039;-79
2021/10/22 11:47:02;;;;;;;9.68;4.38;;;28.50;35.90;;;;;;5074177;28;20050;-79
2021/10/22 11:49:32;;;;;;;8.73;4.32;;;28.30;35.90;;;;;;5092132;28;20036;-80
2021/10/22 11:52:00;;;;;;;7.25;3.83;;;28.60;35.90;;;;;;5092571;28;20426;-79
2021/10/22 11:54:50;;;;;;;13.18;5.55;;;28.60;35.90;;;;;;5074395;28;20162;-81
2021/10/22 11:57:21;;;;;;;10.23;4.20;;;28.40;36.20;;;;;;5092224;28;20405;-79
2021/10/22 11:59:52;;;;;;;7.35;4.72;;;28.30;36.30;;;;;;5074730;28;20115;-77
2021/10/22 12:02:19;;;;;;;8.55;4.05;;;28.10;36.10;;;;;;5074100;28;20033;-80
2021/10/22 12:04:46;;;;;;;7.25;4.40;;;27.30;36.60;;;;;;5074508;28;20031;-81
2021/10/22 12:07:12;;;;;;;10.48;4.70;;;26.30;37.20;;;;;;5092324;28;20071;-80
2021/10/22 12:09:40;;;;;;;21.73;15.95;;;25.40;38.00;;;;;;5073767;28;20083;-79
2021/10/22 12:12:13;;;;;;;14.95;11.15;;;24.60;39.10;;;;;;5074157;28;20065;-79
2021/10/22 12:14:46;;;;;;;11.10;8.27;;;24.10;40.30;;;;;;5091989;28;20063;-77
2021/10/22 12:17:25;;;;;;;9.95;7.03;;;23.80;40.70;;;;;;5074245;28;20028;-80
2021/10/22 12:19:53;;;;;;;10.18;6.40;;;23.50;41.10;;;;;;5091870;28;20489;-78
2021/10/22 12:22:35;;;;;;;13.57;9.48;;;23.10;41.60;;;;;;5091706;28;20031;-80
2021/10/22 12:25:05;;;;;;;14.43;9.23;;;22.90;42.40;;;;;;5094966;28;20551;-79
2021/10/22 12:27:34;;;;;;;13.95;11.23;;;22.80;42.80;;;;;;5074290;28;20158;-80
2021/10/22 12:30:02;;;;;;;17.42;10.23;;;22.70;43.00;;;;;;5091468;28;20105;-80
2021/10/22 12:32:30;;;;;;;11.95;9.65;;;22.60;43.40;;;;;;5092239;28;20035;-80
2021/10/22 12:34:56;;;;;;;16.95;11.65;;;22.40;43.70;;;;;;5091615;28;20039;-79
2021/10/22 12:37:41;;;;;;;16.48;8.90;;;22.40;44.00;;;;;;5091932;28;20555;-79
2021/10/22 12:40:24;;;;;;;11.87;7.77;;;22.30;44.50;;;;;;5073124;28;20024;-83
2021/10/22 12:43:25;;;;;;;11.68;7.00;;;22.20;44.60;;;;;;5073907;28;20286;-77
2021/10/22 12:45:59;;;;;;;13.20;6.97;;;22.00;44.70;;;;;;5095617;28;20070;-80
2021/10/22 12:48:43;;;;;;;11.27;4.87;;;21.90;45.10;;;;;;5077038;28;20405;-79
2021/10/22 12:51:23;;;;;;;9.80;5.15;;;21.80;45.30;;;;;;5093826;28;20474;-78